Time;durP1;ratioP1;P1;durP2;ratioP2;P2;SDS_P1;SDS_P2;PMS_P1;PMS_P2;Temp;Humidity;BMP_temperature;BMP_pressure;BME280_temperature;BME280_humidity;BME280_pressure;Samples;Min_cycle;Max_cycle;Signal;HPM_P1;HPM_P2
2023/11/26 00:00:13;;;;;;;6.33;3.43;;;-0.10;99.90;;;;;;4191628;28;20254;-53
2023/11/26 00:02:14;;;;;;;4.97;3.07;;;-0.20;99.90;;;;;;4191985;28;20293;-56
2023/11/26 00:04:15;;;;;;;3.73;2.93;;;-0.20;99.90;;;;;;4191649;28;20266;-52
2023/11/26 00:06:18;;;;;;;3.97;2.60;;;-0.20;99.90;;;;;;4191009;28;20319;-59
2023/11/26 00:08:19;;;;;;;5.20;2.93;;;-0.20;99.90;;;;;;4192170;28;20250;-58
2023/11/26 00:10:20;;;;;;;4.40;3.07;;;-0.30;99.90;;;;;;4193042;28;20335;-52
2023/11/26 00:12:22;;;;;;;6.80;3.17;;;-0.30;99.90;;;;;;4196064;28;20281;-56
2023/11/26 00:14:24;;;;;;;4.80;3.07;;;-0.30;99.90;;;;;;4194763;28;20330;-57
2023/11/26 00:16:25;;;;;;;7.60;3.30;;;-0.30;99.90;;;;;;4195539;28;20258;-57
2023/11/26 00:18:28;;;;;;;8.70;2.70;;;-0.30;99.90;;;;;;4193896;28;20249;-57
2023/11/26 00:20:29;;;;;;;4.97;2.80;;;-0.30;99.90;;;;;;4196277;28;20253;-56
2023/11/26 00:22:30;;;;;;;3.37;2.43;;;-0.30;99.90;;;;;;4193578;28;20785;-56
2023/11/26 00:24:31;;;;;;;5.37;2.90;;;-0.30;99.90;;;;;;4196043;28;20258;-57
2023/11/26 00:26:32;;;;;;;5.23;2.60;;;-0.30;99.90;;;;;;4194197;28;20741;-56
2023/11/26 00:28:33;;;;;;;4.57;2.77;;;-0.30;99.90;;;;;;4194535;28;20315;-56
2023/11/26 00:30:35;;;;;;;3.67;2.30;;;-0.20;99.90;;;;;;4194409;28;20354;-56
2023/11/26 00:32:36;;;;;;;3.57;3.00;;;-0.20;99.90;;;;;;4194335;28;20273;-56
2023/11/26 00:34:38;;;;;;;5.03;2.73;;;-0.20;99.90;;;;;;4194830;28;20665;-57
2023/11/26 00:36:39;;;;;;;5.53;2.87;;;-0.10;99.90;;;;;;4193592;28;20261;-56
2023/11/26 00:38:40;;;;;;;6.27;3.10;;;-0.10;99.90;;;;;;4195823;28;20262;-56
2023/11/26 00:40:42;;;;;;;6.23;2.93;;;-0.10;99.90;;;;;;4193499;28;20278;-57
2023/11/26 00:42:43;;;;;;;5.47;2.67;;;-0.10;99.90;;;;;;4195558;28;20834;-57
2023/11/26 00:44:44;;;;;;;4.10;2.27;;;-0.10;99.90;;;;;;4193738;28;20296;-56
2023/11/26 00:46:45;;;;;;;10.33;2.70;;;-0.10;99.90;;;;;;4195859;28;20656;-57
2023/11/26 00:48:46;;;;;;;5.33;3.13;;;-0.10;99.90;;;;;;4194168;28;20254;-58
2023/11/26 00:50:47;;;;;;;6.23;2.73;;;-0.10;99.90;;;;;;4195108;28;20258;-58
2023/11/26 00:52:49;;;;;;;5.90;2.60;;;-0.20;99.90;;;;;;4193625;28;20254;-55
2023/11/26 00:54:50;;;;;;;4.60;2.80;;;-0.20;99.90;;;;;;4195614;28;20253;-55
2023/11/26 00:56:51;;;;;;;5.97;2.93;;;-0.20;99.90;;;;;;4193318;28;20277;-57
2023/11/26 00:58:52;;;;;;;5.27;2.20;;;-0.10;99.90;;;;;;4194372;28;20355;-56
2023/11/26 01:00:54;;;;;;;6.13;2.70;;;-0.20;99.90;;;;;;4193801;28;20594;-56
2023/11/26 01:02:56;;;;;;;4.90;2.37;;;-0.20;99.90;;;;;;4193723;28;20367;-58
2023/11/26 01:04:57;;;;;;;3.07;2.40;;;-0.20;99.90;;;;;;4194211;28;20270;-58
2023/11/26 01:06:58;;;;;;;4.83;2.77;;;-0.20;99.90;;;;;;4193685;28;20289;-58
2023/11/26 01:08:59;;;;;;;4.57;2.67;;;-0.20;99.90;;;;;;4195414;28;20326;-58
2023/11/26 01:11:05;;;;;;;5.03;2.97;;;-0.20;99.90;;;;;;4193765;28;20257;-53
2023/11/26 01:13:06;;;;;;;4.83;2.47;;;-0.20;99.90;;;;;;4194232;28;20342;-55
2023/11/26 01:15:09;;;;;;;4.00;2.47;;;-0.30;99.90;;;;;;4193152;28;20585;-54
2023/11/26 01:17:10;;;;;;;5.13;2.70;;;-0.30;99.90;;;;;;4194641;28;20403;-57
2023/11/26 01:19:12;;;;;;;5.60;2.17;;;-0.30;99.90;;;;;;4193739;28;20253;-58
2023/11/26 01:21:13;;;;;;;5.03;2.80;;;-0.30;99.90;;;;;;4195129;28;20315;-57
2023/11/26 01:23:14;;;;;;;7.07;2.37;;;-0.40;99.90;;;;;;4192948;28;20270;-57
2023/11/26 01:25:16;;;;;;;4.50;2.90;;;-0.40;99.90;;;;;;4195310;28;20339;-57
2023/11/26 01:27:17;;;;;;;3.00;2.57;;;-0.40;99.90;;;;;;4192574;28;20757;-54
2023/11/26 01:29:18;;;;;;;4.70;2.10;;;-0.40;99.90;;;;;;4194878;28;20284;-54
2023/11/26 01:31:20;;;;;;;6.47;2.53;;;-0.40;99.90;;;;;;4193886;28;20250;-56
2023/11/26 01:33:21;;;;;;;3.90;2.70;;;-0.40;99.90;;;;;;4194404;28;20261;-57
2023/11/26 01:35:22;;;;;;;2.90;2.17;;;-0.50;99.90;;;;;;4194501;28;20714;-58
2023/11/26 01:37:24;;;;;;;4.77;2.60;;;-0.50;99.90;;;;;;4193818;28;20266;-58
2023/11/26 01:39:25;;;;;;;6.30;2.83;;;-0.50;99.90;;;;;;4194673;28;20735;-54
2023/11/26 01:41:26;;;;;;;3.67;2.53;;;-0.50;99.90;;;;;;4192629;28;20822;-52
2023/11/26 01:43:27;;;;;;;4.13;2.27;;;-0.50;99.90;;;;;;4194095;28;20257;-55
2023/11/26 01:45:29;;;;;;;4.43;2.30;;;-0.50;99.90;;;;;;4193316;28;20323;-57
2023/11/26 01:47:30;;;;;;;4.50;2.57;;;-0.50;99.90;;;;;;4193958;28;20787;-53
2023/11/26 01:49:36;;;;;;;4.47;2.60;;;-0.50;99.90;;;;;;4192161;28;20757;-56
2023/11/26 01:51:37;;;;;;;3.17;2.20;;;-0.50;99.90;;;;;;4194743;28;20324;-55
2023/11/26 01:53:44;;;;;;;4.60;2.30;;;-0.50;99.90;;;;;;4193088;28;20250;-55
2023/11/26 01:55:45;;;;;;;5.80;3.07;;;-0.60;99.90;;;;;;4193783;28;20665;-56
2023/11/26 01:57:47;;;;;;;4.63;2.47;;;-0.60;99.90;;;;;;4191961;28;20331;-54
2023/11/26 01:59:48;;;;;;;3.87;1.97;;;-0.60;99.90;;;;;;4193960;28;20343;-56
2023/11/26 02:01:49;;;;;;;4.23;2.50;;;-0.60;99.90;;;;;;4192868;28;20346;-55
2023/11/26 02:03:51;;;;;;;5.97;2.70;;;-0.60;99.90;;;;;;4192940;28;20741;-57
2023/11/26 02:05:52;;;;;;;3.97;2.40;;;-0.70;99.90;;;;;;4193685;28;20318;-58
2023/11/26 02:07:53;;;;;;;8.27;4.43;;;-0.70;99.90;;;;;;4192923;28;20687;-57
2023/11/26 02:09:55;;;;;;;4.10;2.70;;;-0.70;99.90;;;;;;4193121;28;20266;-57
2023/11/26 02:11:56;;;;;;;5.70;2.77;;;-0.70;99.90;;;;;;4192756;28;20811;-58
2023/11/26 02:13:57;;;;;;;5.40;2.57;;;-0.80;99.90;;;;;;4194035;28;20755;-56
2023/11/26 02:15:58;;;;;;;4.20;2.33;;;-0.80;99.90;;;;;;4192083;28;20319;-53
2023/11/26 02:18:00;;;;;;;4.33;2.63;;;-0.80;99.90;;;;;;4194458;28;20679;-57
2023/11/26 02:20:04;;;;;;;3.27;2.17;;;-0.80;99.90;;;;;;4192034;28;20684;-57
2023/11/26 02:22:08;;;;;;;3.80;2.53;;;-0.80;99.90;;;;;;4193487;28;20293;-57
2023/11/26 02:24:15;;;;;;;4.73;2.60;;;-0.90;99.90;;;;;;4191729;28;20257;-55
2023/11/26 02:26:16;;;;;;;5.77;2.77;;;-0.90;99.90;;;;;;4194207;28;20691;-56
2023/11/26 02:28:17;;;;;;;6.83;2.80;;;-0.90;99.90;;;;;;4192533;28;20331;-59
2023/11/26 02:30:20;;;;;;;4.27;2.60;;;-0.90;99.90;;;;;;4193397;28;20343;-56
2023/11/26 02:32:21;;;;;;;10.33;2.93;;;-0.90;99.90;;;;;;4191562;28;21235;-54
2023/11/26 02:34:22;;;;;;;4.10;2.40;;;-1.00;99.90;;;;;;4194340;28;20281;-53
2023/11/26 02:36:25;;;;;;;4.63;2.30;;;-1.00;99.90;;;;;;4192333;28;20265;-57
2023/11/26 02:38:26;;;;;;;4.43;2.80;;;-1.00;99.90;;;;;;4192522;28;20315;-57
2023/11/26 02:40:27;;;;;;;5.03;2.67;;;-1.00;99.90;;;;;;4192307;28;20266;-55
2023/11/26 02:42:29;;;;;;;4.33;2.33;;;-1.10;99.90;;;;;;4193024;28;20289;-57
2023/11/26 02:44:30;;;;;;;4.23;2.00;;;-1.10;99.90;;;;;;4192641;28;20265;-58
2023/11/26 02:46:31;;;;;;;4.07;2.03;;;-1.10;99.90;;;;;;4191793;28;20315;-54
2023/11/26 02:48:32;;;;;;;4.00;2.33;;;-1.10;99.90;;;;;;4193035;28;20390;-56
2023/11/26 02:50:33;;;;;;;3.47;2.33;;;-1.10;99.90;;;;;;4191429;28;20314;-57
2023/11/26 02:52:35;;;;;;;6.67;2.47;;;-1.10;99.90;;;;;;4193847;28;20335;-52
2023/11/26 02:54:36;;;;;;;3.53;2.27;;;-1.20;99.90;;;;;;4191530;28;20678;-56
2023/11/26 02:56:42;;;;;;;4.73;2.57;;;-1.10;99.90;;;;;;4194006;28;20270;-58
2023/11/26 02:58:43;;;;;;;2.23;2.00;;;-1.20;99.90;;;;;;4190967;28;20273;-56
2023/11/26 03:00:47;;;;;;;4.97;2.23;;;-1.20;99.90;;;;;;4193936;28;20257;-56
2023/11/26 03:02:48;;;;;;;3.53;2.57;;;-1.20;99.90;;;;;;4191487;28;20293;-58
2023/11/26 03:04:53;;;;;;;3.40;2.20;;;-1.20;99.90;;;;;;4194233;28;20265;-56
2023/11/26 03:06:54;;;;;;;3.50;2.17;;;-1.20;99.90;;;;;;4191513;28;20253;-57
2023/11/26 03:09:10;;;;;;;2.53;1.70;;;-1.20;99.90;;;;;;4192800;28;20418;-56
2023/11/26 03:13:31;;;;;;;5.87;2.53;;;-1.20;99.90;;;;;;4193410;28;20285;-56
2023/11/26 03:15:36;;;;;;;5.87;2.10;;;-1.20;99.90;;;;;;4190718;28;20368;-57
2023/11/26 03:17:38;;;;;;;4.93;2.43;;;-1.20;99.90;;;;;;4193729;28;20616;-57
2023/11/26 03:19:39;;;;;;;5.40;2.70;;;-1.20;99.90;;;;;;4191455;28;20269;-56
2023/11/26 03:21:44;;;;;;;6.50;2.10;;;-1.20;99.90;;;;;;4193004;28;20278;-57
2023/11/26 03:23:46;;;;;;;2.90;1.70;;;-1.30;99.90;;;;;;4191763;28;20350;-57
2023/11/26 03:25:47;;;;;;;3.27;2.27;;;-1.20;99.90;;;;;;4191927;28;20656;-57
2023/11/26 03:27:48;;;;;;;2.87;1.70;;;-1.30;99.90;;;;;;4192026;28;20745;-54
2023/11/26 03:29:49;;;;;;;7.37;2.60;;;-1.30;99.90;;;;;;4191480;28;20319;-57
2023/11/26 03:31:53;;;;;;;4.33;2.80;;;-1.30;99.90;;;;;;4193398;28;20269;-58
2023/11/26 03:33:54;;;;;;;5.47;2.37;;;-1.30;99.90;;;;;;4191871;28;20668;-54
2023/11/26 03:35:55;;;;;;;3.83;2.27;;;-1.20;99.90;;;;;;4193220;28;20678;-56
2023/11/26 03:37:56;;;;;;;6.20;2.57;;;-1.30;99.90;;;;;;4191828;28;20315;-55
2023/11/26 03:39:58;;;;;;;4.17;2.07;;;-1.30;99.90;;;;;;4193556;28;20331;-55
2023/11/26 03:41:59;;;;;;;4.60;2.63;;;-1.30;99.90;;;;;;4191723;28;20289;-57
2023/11/26 03:44:00;;;;;;;3.80;2.43;;;-1.30;99.90;;;;;;4192570;28;20603;-57
2023/11/26 03:46:01;;;;;;;3.13;1.60;;;-1.30;99.90;;;;;;4194537;28;21107;-56
2023/11/26 03:48:03;;;;;;;2.83;2.10;;;-1.30;99.90;;;;;;4196731;28;20265;-57
2023/11/26 03:50:09;;;;;;;2.97;2.63;;;-1.30;99.90;;;;;;4195118;28;20338;-56
2023/11/26 03:52:10;;;;;;;3.10;1.70;;;-1.30;99.90;;;;;;4196497;28;20312;-57
2023/11/26 03:54:11;;;;;;;3.87;2.07;;;-1.30;99.90;;;;;;4195256;28;20249;-55
2023/11/26 03:56:13;;;;;;;6.03;2.47;;;-1.30;99.90;;;;;;4195414;28;20330;-57
2023/11/26 03:58:14;;;;;;;4.27;2.43;;;-1.30;99.90;;;;;;4194820;28;20314;-55
2023/11/26 04:00:16;;;;;;;4.17;2.50;;;-1.30;99.90;;;;;;4194355;28;20702;-54
2023/11/26 04:02:17;;;;;;;3.70;2.03;;;-1.30;99.90;;;;;;4195175;28;20358;-57
2023/11/26 04:04:18;;;;;;;5.10;2.90;;;-1.30;99.90;;;;;;4194826;28;20265;-56
2023/11/26 04:06:19;;;;;;;5.27;2.93;;;-1.40;99.90;;;;;;4196887;28;20254;-56
2023/11/26 04:08:22;;;;;;;3.63;1.80;;;-1.30;99.90;;;;;;4194171;28;20269;-56
2023/11/26 04:10:24;;;;;;;4.47;2.27;;;-1.40;99.90;;;;;;4195578;28;20318;-59
2023/11/26 04:12:26;;;;;;;4.33;2.10;;;-1.40;99.90;;;;;;4194455;28;20305;-56
2023/11/26 04:14:31;;;;;;;5.53;2.40;;;-1.40;99.90;;;;;;4196038;28;20273;-56
2023/11/26 04:16:32;;;;;;;3.80;2.00;;;-1.40;99.90;;;;;;4193896;28;20270;-55
2023/11/26 04:18:34;;;;;;;4.97;1.80;;;-1.40;99.90;;;;;;4195641;28;20281;-58
2023/11/26 04:20:35;;;;;;;4.20;2.20;;;-1.40;99.90;;;;;;4194477;28;20273;-54
2023/11/26 04:22:36;;;;;;;4.00;2.27;;;-1.40;99.90;;;;;;4196115;28;20761;-57
2023/11/26 04:24:41;;;;;;;3.47;1.70;;;-1.40;99.90;;;;;;4194517;28;20727;-56
2023/11/26 04:26:42;;;;;;;3.10;1.87;;;-1.40;99.90;;;;;;4195555;28;20261;-56
2023/11/26 04:28:43;;;;;;;3.17;1.90;;;-1.40;99.90;;;;;;4193371;28;20250;-55
2023/11/26 04:30:45;;;;;;;3.37;2.00;;;-1.40;99.90;;;;;;4194330;28;20303;-56
2023/11/26 04:32:46;;;;;;;4.70;2.30;;;-1.40;99.90;;;;;;4194733;28;20313;-57
2023/11/26 04:34:47;;;;;;;3.10;2.20;;;-1.50;99.90;;;;;;4194024;28;20261;-56
2023/11/26 04:36:48;;;;;;;3.60;2.10;;;-1.40;99.90;;;;;;4195861;28;20323;-56
2023/11/26 04:38:49;;;;;;;4.53;1.70;;;-1.40;99.90;;;;;;4193375;28;20743;-58
2023/11/26 04:40:51;;;;;;;3.00;1.97;;;-1.40;99.90;;;;;;4195067;28;20828;-58
2023/11/26 04:42:52;;;;;;;7.70;2.00;;;-1.40;99.90;;;;;;4194107;28;20703;-54
2023/11/26 04:44:53;;;;;;;4.57;2.27;;;-1.40;99.90;;;;;;4195458;28;20741;-57
2023/11/26 04:46:54;;;;;;;4.57;1.77;;;-1.40;99.90;;;;;;4193493;28;20265;-56
2023/11/26 04:48:55;;;;;;;3.50;1.90;;;-1.50;99.90;;;;;;4194786;28;20273;-58
2023/11/26 04:50:56;;;;;;;2.90;2.13;;;-1.50;99.90;;;;;;4193301;28;20342;-57
2023/11/26 04:52:58;;;;;;;3.27;1.70;;;-1.50;99.90;;;;;;4195024;28;20273;-58
2023/11/26 04:54:59;;;;;;;4.60;1.83;;;-1.50;99.90;;;;;;4194144;28;20273;-56
2023/11/26 04:57:00;;;;;;;3.17;2.13;;;-1.60;99.90;;;;;;4194197;28;20278;-59
2023/11/26 04:59:01;;;;;;;3.63;2.30;;;-1.60;99.90;;;;;;4194492;28;20323;-54
2023/11/26 05:01:02;;;;;;;4.87;2.27;;;-1.60;99.90;;;;;;4194289;28;20365;-56
2023/11/26 05:03:04;;;;;;;1.87;1.60;;;-1.60;99.90;;;;;;4193806;28;20305;-56
2023/11/26 05:05:08;;;;;;;4.67;2.53;;;-1.60;99.90;;;;;;4194419;28;20326;-57
2023/11/26 05:07:09;;;;;;;3.57;2.23;;;-1.60;99.90;;;;;;4195423;28;20254;-58
2023/11/26 05:09:12;;;;;;;5.13;2.17;;;-1.60;99.90;;;;;;4193992;28;20725;-56
2023/11/26 05:11:13;;;;;;;3.30;1.90;;;-1.70;99.90;;;;;;4194625;28;20270;-57
2023/11/26 05:13:14;;;;;;;3.33;1.87;;;-1.70;99.90;;;;;;4192844;28;20351;-55
2023/11/26 05:15:16;;;;;;;4.77;2.57;;;-1.70;99.90;;;;;;4194325;28;20274;-56
2023/11/26 05:17:17;;;;;;;3.27;2.40;;;-1.80;99.90;;;;;;4193755;28;20311;-55
2023/11/26 05:19:18;;;;;;;3.33;2.03;;;-1.70;99.90;;;;;;4194476;28;20315;-55
2023/11/26 05:21:19;;;;;;;4.10;2.77;;;-1.80;99.90;;;;;;4193081;28;20277;-53
2023/11/26 05:23:20;;;;;;;3.40;2.57;;;-1.80;99.90;;;;;;4195049;28;20289;-56
2023/11/26 05:25:21;;;;;;;3.60;2.10;;;-1.80;99.90;;;;;;4193582;28;20274;-56
2023/11/26 05:27:22;;;;;;;4.80;2.73;;;-1.80;99.90;;;;;;4193970;28;20269;-56
2023/11/26 05:29:24;;;;;;;2.80;1.60;;;-1.90;99.90;;;;;;4193677;28;20609;-55
2023/11/26 05:31:25;;;;;;;6.40;2.33;;;-1.90;99.90;;;;;;4193848;28;20274;-54
2023/11/26 05:33:26;;;;;;;3.73;2.17;;;-1.90;99.90;;;;;;4194140;28;20295;-56
2023/11/26 05:35:28;;;;;;;3.80;2.10;;;-1.90;99.90;;;;;;4194238;28;20272;-56
2023/11/26 05:37:29;;;;;;;4.57;2.27;;;-2.00;99.90;;;;;;4193869;28;20269;-54
2023/11/26 05:39:30;;;;;;;4.37;2.30;;;-2.00;99.90;;;;;;4192597;28;20666;-54
2023/11/26 05:41:32;;;;;;;4.53;2.30;;;-2.00;99.90;;;;;;4194813;28;20266;-56
2023/11/26 05:43:34;;;;;;;3.20;2.27;;;-2.00;99.90;;;;;;4192258;28;20338;-56
2023/11/26 05:45:35;;;;;;;3.67;2.13;;;-2.00;99.90;;;;;;4194049;28;20315;-57
2023/11/26 05:47:36;;;;;;;8.53;2.97;;;-2.00;99.90;;;;;;4192480;28;20771;-56
2023/11/26 05:49:38;;;;;;;4.90;2.60;;;-2.00;99.90;;;;;;4193958;28;20765;-55
2023/11/26 05:51:39;;;;;;;4.33;2.50;;;-2.10;99.90;;;;;;4193057;28;20269;-57
2023/11/26 05:53:40;;;;;;;3.00;2.23;;;-2.10;99.90;;;;;;4194792;28;20277;-57
2023/11/26 05:55:41;;;;;;;5.67;2.90;;;-2.10;99.90;;;;;;4192290;28;20274;-57
2023/11/26 05:57:42;;;;;;;4.57;2.30;;;-2.10;99.90;;;;;;4193617;28;20266;-57
2023/11/26 05:59:44;;;;;;;4.23;2.53;;;-2.10;99.90;;;;;;4192367;28;20307;-54
2023/11/26 06:01:45;;;;;;;5.53;2.83;;;-2.10;99.90;;;;;;4193968;28;20326;-56
2023/11/26 06:03:46;;;;;;;4.17;2.53;;;-2.10;99.90;;;;;;4192503;28;20362;-57
2023/11/26 06:05:48;;;;;;;6.47;2.60;;;-2.10;99.90;;;;;;4194048;28;20273;-57
2023/11/26 06:07:49;;;;;;;4.07;2.37;;;-2.00;99.90;;;;;;4192233;28;20281;-58
2023/11/26 06:09:50;;;;;;;5.17;2.93;;;-2.10;99.90;;;;;;4192088;28;20660;-52
2023/11/26 06:11:52;;;;;;;5.10;2.30;;;-2.10;99.90;;;;;;4194131;28;20749;-57
2023/11/26 06:13:53;;;;;;;5.00;2.70;;;-2.00;99.90;;;;;;4191592;28;20322;-57
2023/11/26 06:15:55;;;;;;;3.47;2.27;;;-2.10;99.90;;;;;;4194331;28;20257;-57
2023/11/26 06:17:56;;;;;;;5.47;2.90;;;-2.10;99.90;;;;;;4192693;28;20265;-56
2023/11/26 06:19:57;;;;;;;4.53;2.53;;;-2.00;99.90;;;;;;4193464;28;20323;-57
2023/11/26 06:21:59;;;;;;;3.27;2.13;;;-2.00;99.90;;;;;;4191917;28;20253;-55
2023/11/26 06:24:00;;;;;;;5.83;2.40;;;-2.00;99.90;;;;;;4194034;28;20331;-56
2023/11/26 06:26:01;;;;;;;6.03;2.73;;;-2.00;99.90;;;;;;4191732;28;20326;-57
2023/11/26 06:28:02;;;;;;;5.20;2.37;;;-2.00;99.90;;;;;;4193832;28;20273;-57
2023/11/26 06:30:07;;;;;;;5.23;2.60;;;-2.00;99.90;;;;;;4191843;28;20274;-53
2023/11/26 06:32:09;;;;;;;5.87;2.60;;;-2.00;99.90;;;;;;4193674;28;20555;-60
2023/11/26 06:34:10;;;;;;;6.07;2.47;;;-1.90;99.90;;;;;;4192807;28;20318;-58
2023/11/26 06:36:22;;;;;;;5.13;2.23;;;-1.90;99.90;;;;;;4192182;28;20355;-53
2023/11/26 06:38:24;;;;;;;4.13;2.43;;;-1.90;99.90;;;;;;4192375;28;20269;-57
2023/11/26 06:40:25;;;;;;;4.10;2.20;;;-1.90;99.90;;;;;;4192171;28;20277;-59
2023/11/26 06:42:27;;;;;;;3.90;2.50;;;-1.80;99.90;;;;;;4192310;28;20741;-57
2023/11/26 06:44:28;;;;;;;4.97;2.90;;;-1.80;99.90;;;;;;4191494;28;20342;-55
2023/11/26 06:46:29;;;;;;;4.63;2.20;;;-1.80;99.90;;;;;;4193806;28;20327;-57
2023/11/26 06:48:30;;;;;;;4.47;2.33;;;-1.70;99.90;;;;;;4192258;28;20323;-55
2023/11/26 06:50:35;;;;;;;6.03;3.17;;;-1.70;99.90;;;;;;4192972;28;20753;-57
2023/11/26 06:52:37;;;;;;;5.07;3.13;;;-1.70;99.90;;;;;;4191407;28;20847;-57
2023/11/26 06:54:38;;;;;;;9.57;3.70;;;-1.60;99.90;;;;;;4192950;28;20690;-56
2023/11/26 06:56:39;;;;;;;8.13;4.23;;;-1.60;99.90;;;;;;4192083;28;20254;-58
2023/11/26 06:58:43;;;;;;;7.03;3.40;;;-1.60;99.90;;;;;;4193410;28;20253;-59
2023/11/26 07:00:45;;;;;;;4.63;2.60;;;-1.60;99.90;;;;;;4191248;28;20327;-57
2023/11/26 07:02:46;;;;;;;4.33;2.60;;;-1.50;99.90;;;;;;4192702;28;20281;-56
2023/11/26 07:04:47;;;;;;;4.40;2.90;;;-1.50;99.90;;;;;;4191883;28;20274;-57
2023/11/26 07:06:49;;;;;;;4.27;2.60;;;-1.40;99.90;;;;;;4192855;28;20269;-58
2023/11/26 07:08:50;;;;;;;4.97;2.70;;;-1.40;99.90;;;;;;4191583;28;20278;-57
2023/11/26 07:10:51;;;;;;;3.90;2.17;;;-1.40;99.90;;;;;;4191855;28;20392;-56
2023/11/26 07:12:55;;;;;;;7.87;2.73;;;-1.30;99.90;;;;;;4192490;28;20637;-57
2023/11/26 07:14:56;;;;;;;3.53;2.33;;;-1.30;99.90;;;;;;4192227;28;20277;-52
2023/11/26 07:16:58;;;;;;;5.90;2.70;;;-1.20;99.90;;;;;;4175023;28;20649;-55
2023/11/26 07:18:59;;;;;;;3.53;2.23;;;-1.20;99.90;;;;;;4190940;28;20274;-56
2023/11/26 07:21:00;;;;;;;5.73;2.77;;;-1.20;99.90;;;;;;4192440;28;20399;-52
2023/11/26 07:23:01;;;;;;;5.47;2.60;;;-1.20;99.90;;;;;;4191728;28;20282;-57
2023/11/26 07:25:04;;;;;;;7.03;3.03;;;-1.10;99.90;;;;;;4192565;28;20273;-54
2023/11/26 07:27:05;;;;;;;3.67;2.73;;;-1.10;99.90;;;;;;4191795;28;20338;-57
2023/11/26 07:29:08;;;;;;;6.97;2.97;;;-1.10;99.90;;;;;;4192262;28;20680;-55
2023/11/26 07:31:13;;;;;;;4.87;2.43;;;-1.10;99.90;;;;;;4191157;28;20327;-56
2023/11/26 07:33:15;;;;;;;4.90;2.67;;;-1.10;99.90;;;;;;4192614;28;20664;-57
2023/11/26 07:35:17;;;;;;;5.43;2.50;;;-1.10;99.90;;;;;;4180949;28;20278;-57
2023/11/26 07:37:18;;;;;;;6.87;2.50;;;-1.10;99.90;;;;;;4176215;28;20274;-56
2023/11/26 07:39:19;;;;;;;10.63;4.17;;;-1.10;99.90;;;;;;4175245;28;20254;-56
2023/11/26 07:41:21;;;;;;;8.93;4.73;;;-1.10;99.90;;;;;;4175717;28;20265;-57
2023/11/26 07:43:22;;;;;;;7.00;3.47;;;-1.10;99.90;;;;;;4174754;28;20278;-52
2023/11/26 07:45:24;;;;;;;11.87;4.83;;;-1.10;99.90;;;;;;4175628;28;20673;-59
2023/11/26 07:47:26;;;;;;;10.47;3.90;;;-1.10;99.90;;;;;;4175048;28;20266;-54
2023/11/26 07:49:29;;;;;;;6.67;3.40;;;-1.00;99.90;;;;;;4175142;28;20772;-58
2023/11/26 07:51:31;;;;;;;7.50;2.60;;;-0.90;99.90;;;;;;4175451;28;20742;-54
2023/11/26 07:53:33;;;;;;;4.83;1.83;;;-0.90;99.90;;;;;;4174222;28;20263;-57
2023/11/26 07:55:36;;;;;;;3.50;1.90;;;-0.90;99.90;;;;;;4176497;28;20324;-54
2023/11/26 07:57:37;;;;;;;5.40;2.47;;;-0.90;99.90;;;;;;4174758;28;20576;-57
2023/11/26 07:59:38;;;;;;;10.37;4.37;;;-0.70;99.90;;;;;;4175596;28;20297;-59
2023/11/26 08:01:39;;;;;;;18.90;7.33;;;-0.70;99.90;;;;;;4174785;28;20262;-55
2023/11/26 08:03:41;;;;;;;6.33;3.80;;;-0.60;99.90;;;;;;4175562;28;20286;-58
2023/11/26 08:05:43;;;;;;;6.10;3.50;;;-0.60;99.90;;;;;;4174428;28;20328;-57
2023/11/26 08:07:45;;;;;;;6.13;2.87;;;-0.60;99.90;;;;;;4176546;28;20267;-59
2023/11/26 08:09:48;;;;;;;3.70;2.43;;;-0.50;99.90;;;;;;4173861;28;20254;-56
2023/11/26 08:11:52;;;;;;;5.97;2.83;;;-0.40;99.90;;;;;;4176075;28;20296;-58
2023/11/26 08:13:53;;;;;;;5.07;3.13;;;-0.30;99.90;;;;;;4174414;28;20274;-57
2023/11/26 08:15:57;;;;;;;4.90;2.27;;;-0.20;99.90;;;;;;4175463;28;20323;-57
2023/11/26 08:17:59;;;;;;;5.10;3.80;;;-0.20;99.90;;;;;;4174508;28;20316;-56
2023/11/26 08:20:00;;;;;;;3.57;2.27;;;-0.10;99.90;;;;;;4174600;28;20286;-58
2023/11/26 08:22:01;;;;;;;5.53;2.50;;;-0.10;99.90;;;;;;4175119;28;20308;-58
2023/11/26 08:24:05;;;;;;;6.73;2.93;;;0.10;99.90;;;;;;4174826;28;20286;-57
2023/11/26 08:26:09;;;;;;;5.43;2.17;;;0.10;99.90;;;;;;4176021;28;20320;-54
2023/11/26 08:28:11;;;;;;;3.30;2.27;;;0.10;99.90;;;;;;4173863;28;20286;-57
2023/11/26 08:30:13;;;;;;;4.70;2.43;;;0.20;99.90;;;;;;4176202;28;20274;-57
2023/11/26 08:32:14;;;;;;;7.30;3.50;;;0.30;99.90;;;;;;4176729;28;20270;-58
2023/11/26 08:34:16;;;;;;;6.40;2.63;;;0.30;99.90;;;;;;4178403;28;20308;-55
2023/11/26 08:36:18;;;;;;;5.80;2.20;;;0.40;99.90;;;;;;4177130;28;20658;-58
2023/11/26 08:38:19;;;;;;;6.90;2.60;;;0.40;99.90;;;;;;4178944;28;20407;-57
2023/11/26 08:40:20;;;;;;;4.83;2.07;;;0.50;99.90;;;;;;4176341;28;20262;-54
2023/11/26 08:42:22;;;;;;;4.13;2.43;;;0.50;99.90;;;;;;4177852;28;20282;-60
2023/11/26 08:44:23;;;;;;;4.13;2.33;;;0.60;99.90;;;;;;4176465;28;20677;-56
2023/11/26 08:46:26;;;;;;;5.63;2.57;;;0.60;99.90;;;;;;4178003;28;20270;-58
2023/11/26 08:48:30;;;;;;;5.27;2.77;;;0.50;99.90;;;;;;4176341;28;20263;-58
2023/11/26 08:50:31;;;;;;;4.10;2.57;;;0.70;99.90;;;;;;4178095;28;20326;-59
2023/11/26 08:52:34;;;;;;;3.83;2.10;;;0.80;99.90;;;;;;4176998;28;20270;-56
2023/11/26 08:54:35;;;;;;;3.93;2.37;;;0.90;99.90;;;;;;4177156;28;20335;-58
2023/11/26 08:56:36;;;;;;;4.97;2.30;;;1.00;99.90;;;;;;4177576;28;20319;-56
2023/11/26 08:58:38;;;;;;;5.30;3.03;;;1.00;99.90;;;;;;4177257;28;20753;-57
2023/11/26 09:00:39;;;;;;;4.50;2.60;;;1.10;99.90;;;;;;4178663;28;20270;-56
2023/11/26 09:02:40;;;;;;;4.83;2.87;;;1.20;99.90;;;;;;4177204;28;20527;-58
2023/11/26 09:04:41;;;;;;;5.83;2.80;;;1.30;99.90;;;;;;4178396;28;20572;-58
2023/11/26 09:06:42;;;;;;;4.63;2.33;;;1.30;99.90;;;;;;4177601;28;20266;-56
2023/11/26 09:08:49;;;;;;;13.17;2.83;;;1.30;99.90;;;;;;4178647;28;20588;-57
2023/11/26 09:10:50;;;;;;;3.87;1.83;;;1.30;99.90;;;;;;4176388;28;20317;-58
2023/11/26 09:12:51;;;;;;;3.60;2.60;;;1.30;99.90;;;;;;4178030;28;20579;-58
2023/11/26 09:14:53;;;;;;;4.77;3.30;;;1.40;99.90;;;;;;4176064;28;20340;-58
2023/11/26 09:16:54;;;;;;;4.13;2.43;;;1.50;99.90;;;;;;4178414;28;20281;-57
2023/11/26 09:18:56;;;;;;;4.87;2.50;;;1.50;99.90;;;;;;4177035;28;20266;-58
2023/11/26 09:20:58;;;;;;;6.17;3.30;;;1.50;99.90;;;;;;4177270;28;20278;-59
2023/11/26 09:22:59;;;;;;;3.63;2.20;;;1.60;99.90;;;;;;4176553;28;20295;-54
2023/11/26 09:25:03;;;;;;;5.17;2.30;;;1.60;99.90;;;;;;4177255;28;20392;-57
2023/11/26 09:27:04;;;;;;;4.07;2.23;;;1.60;99.90;;;;;;4177465;28;20270;-57
2023/11/26 09:29:06;;;;;;;5.57;2.27;;;1.60;99.90;;;;;;4177024;28;20266;-58
2023/11/26 09:31:08;;;;;;;3.57;2.13;;;1.60;99.90;;;;;;4177315;28;20282;-59
2023/11/26 09:33:09;;;;;;;4.73;1.93;;;1.60;99.90;;;;;;4176108;28;20328;-53
2023/11/26 09:35:11;;;;;;;5.17;2.10;;;1.70;99.90;;;;;;4178335;28;20269;-57
2023/11/26 09:37:12;;;;;;;4.13;2.33;;;1.70;99.90;;;;;;4176503;28;20353;-59
2023/11/26 09:39:15;;;;;;;4.13;1.63;;;1.60;99.90;;;;;;4178053;28;20293;-56
2023/11/26 09:41:20;;;;;;;3.73;2.00;;;1.60;99.90;;;;;;4175816;28;20258;-55
2023/11/26 09:43:22;;;;;;;3.57;2.27;;;1.60;99.90;;;;;;4176628;28;20273;-56
2023/11/26 09:45:23;;;;;;;3.07;2.03;;;1.60;99.90;;;;;;4176434;28;20345;-58
2023/11/26 09:47:26;;;;;;;3.23;1.67;;;1.60;99.90;;;;;;4178258;28;20266;-57
2023/11/26 09:49:27;;;;;;;6.57;1.93;;;1.60;99.90;;;;;;4175688;28;20259;-57
2023/11/26 09:51:31;;;;;;;3.97;2.17;;;1.70;99.90;;;;;;4177775;28;20672;-58
2023/11/26 09:53:34;;;;;;;3.03;1.87;;;1.60;99.90;;;;;;4175779;28;20324;-56
2023/11/26 09:55:39;;;;;;;8.80;2.03;;;1.60;99.90;;;;;;4176629;28;20300;-59
2023/11/26 09:57:41;;;;;;;2.93;1.80;;;1.60;99.90;;;;;;4175328;28;20331;-58
2023/11/26 09:59:42;;;;;;;3.77;1.87;;;1.60;99.90;;;;;;4158416;28;20325;-56
2023/11/26 10:01:43;;;;;;;3.67;2.20;;;1.60;99.90;;;;;;4158745;28;20336;-57
2023/11/26 10:04:00;;;;;;;3.53;2.23;;;1.70;99.90;;;;;;4175068;28;20290;-55
2023/11/26 10:06:11;;;;;;;3.50;2.30;;;1.80;99.90;;;;;;4176774;28;20255;-55
2023/11/26 10:08:28;;;;;;;4.80;2.15;;;1.80;99.90;;;;;;4175382;28;20664;-60
2023/11/26 10:10:29;;;;;;;4.93;2.40;;;1.80;99.90;;;;;;4175872;28;20087;-56
2023/11/26 10:12:52;;;;;;;4.57;2.00;;;1.80;99.90;;;;;;4175515;28;20348;-57
2023/11/26 10:15:06;;;;;;;4.47;2.20;;;1.80;99.90;;;;;;4176683;28;20258;-58
2023/11/26 10:17:09;;;;;;;8.30;2.37;;;1.80;99.90;;;;;;4176142;28;20273;-59
2023/11/26 10:19:31;;;;;;;3.00;2.00;;;1.70;99.90;;;;;;4176243;28;20323;-56
2023/11/26 10:21:32;;;;;;;4.37;2.30;;;1.70;99.90;;;;;;4158103;28;20409;-58
2023/11/26 10:23:39;;;;;;;2.43;1.67;;;1.60;99.90;;;;;;4175860;28;20274;-55
2023/11/26 10:25:43;;;;;;;2.77;2.10;;;1.60;99.90;;;;;;4175662;28;20293;-55
2023/11/26 10:27:46;;;;;;;6.03;3.20;;;1.50;99.90;;;;;;4157976;28;20626;-58
2023/11/26 10:29:47;;;;;;;4.13;2.53;;;1.50;99.90;;;;;;4176230;28;20250;-57
2023/11/26 10:31:59;;;;;;;4.10;2.43;;;1.40;99.90;;;;;;4176620;28;20347;-59
2023/11/26 10:34:14;;;;;;;6.50;3.43;;;1.30;99.90;;;;;;4175336;28;20266;-58
2023/11/26 10:36:36;;;;;;;6.30;3.37;;;1.20;99.90;;;;;;4176285;28;20316;-56
2023/11/26 10:38:37;;;;;;;4.73;2.70;;;1.20;99.90;;;;;;4175579;28;20748;-58